Terminal Aerodrome Forecast
Issued by NWS Amarillo, TX

Home | Current Version | Previous Version | Text Only | Print | Product List | Glossary On
Versions: 1 2 3 4 5 6 7 8 9 10 11 12 13 14 15 16 17 18
000
FTUS44 KAMA 020600 AAA
TAFDHT
TAF AMD
KDHT 020630Z 0207/0306 34012G22KT P6SM SCT200
     FM021400 06010KT P6SM SCT200
     FM021900 22018G28KT P6SM SCT090 BKN200
     FM030100 26016KT P6SM SCT050 BKN200
     FM030400 35020G30KT P6SM SCT040 BKN120=

USA.gov is the U.S. government's official web portal to all federal, state and local government web resources and services.